LIPQ/TRS METAR and TAF weather

Enter ICAO airport designator
Station Type Date Time Source
LIPQ METAR 2021/05/14 23:20 UTC NOAA

LIPQ 142320Z AUTO 07004KT 030V100 9999 BKN063/// BKN150/// 13/11 Q1010


Station Type Date Time Source
LIPQ Decoded METAR 2021/05/14 23:20 UTC NOAA

Ronchi Dei Legionari, Italy (LIPQ) 45-49N 013-29E 12M
May 14, 2021 - 07:20 PM EDT / 2021.05.14 2320 UTC
Wind: from the ENE (070 degrees) at 5 MPH (4 KT) (direction variable):0
Visibility: greater than 7 mile(s):0
Sky conditions: mostly cloudy
Temperature: 55 F (13 C)
Dew Point: 51 F (11 C)
Relative Humidity: 87%
Pressure (altimeter): 29.83 in. Hg (1010 hPa)
ob: LIPQ 142320Z AUTO 07004KT 030V100 9999 BKN063/// BKN150/// 13/11 Q1010
cycle: 23

Station Type Date Time Source
LIPQ TAF 2021/05/14 18:21 UTC NOAA

TAF LIPQ 141700Z 1418/1518 VRB05KT 9999 SCT030
TEMPO 1418/1424 4000 TSRA BKN014

Example: see airport list